Milky Seas/ Bioluminescence Remote Sensing Expert
Closes: 08/28/2025
Position Type: Admin Professional/Research Professional
Full/Part Time:Full Time
View job and apply on CSU Jobs website: https://jobs.colostate.edu/postings/165190
| Date Time MST |
Temp °F |
RH % |
DewPt °F |
Wind mph |
Dir ° |
Gust mph |
Dir ° |
Press in Hg |
Solar W/m^2 |
Prec in |
|---|---|---|---|---|---|---|---|---|---|---|
| 2026-05-06 07:55 | 34.2 | 97.7 | 33.6 | 0.0 | 296 | 0.0 | 9 | 24.964 | 70.0 | 0.00 |
| 2026-05-06 07:50 | 33.6 | 97.9 | 33.1 | 0.0 | 9 | 0.0 | 9 | 24.964 | 66.2 | 0.00 |
| 2026-05-06 07:45 | 33.1 | 97.9 | 32.6 | 0.0 | 9 | 0.0 | 9 | 24.964 | 62.3 | 0.00 |
| 2026-05-06 07:40 | 32.6 | 98.1 | 32.1 | 0.0 | 9 | 0.0 | 9 | 24.964 | 58.8 | 0.00 |
| 2026-05-06 07:35 | 32.2 | 98.1 | 31.7 | 0.0 | 9 | 0.0 | 9 | 24.964 | 51.6 | 0.00 |
| 2026-05-06 07:30 | 31.8 | 98.2 | 31.4 | 0.0 | 9 | 0.0 | 9 | 24.964 | 45.1 | 0.00 |
| 2026-05-06 07:25 | 31.7 | 98.1 | 31.2 | 0.0 | 9 | 0.0 | 9 | 24.963 | 46.2 | 0.00 |
| 2026-05-06 07:20 | 31.4 | 98.2 | 30.9 | 0.0 | 9 | 0.0 | 9 | 24.961 | 46.1 | 0.00 |
| 2026-05-06 07:15 | 31.1 | 98.1 | 30.7 | 0.0 | 9 | 0.0 | 9 | 24.959 | 40.1 | 0.00 |
| 2026-05-06 07:10 | 30.8 | 98.1 | 30.4 | 0.0 | 9 | 0.0 | 9 | 24.959 | 36.5 | 0.00 |
| 2026-05-06 07:05 | 30.7 | 98.1 | 30.2 | 0.0 | 9 | 0.0 | 9 | 24.957 | 30.1 | 0.00 |
| 2026-05-06 07:00 | 30.6 | 98.2 | 30.1 | 0.0 | 9 | 0.0 | 9 | 24.958 | 25.1 | 0.00 |
| 2026-05-06 06:55 | 30.6 | 98.1 | 30.1 | 0.0 | 9 | 0.0 | 9 | 24.957 | 22.7 | 0.00 |
| 2026-05-06 06:50 | 30.5 | 98.1 | 30.0 | 0.0 | 9 | 0.0 | 9 | 24.958 | 23.1 | 0.00 |
| 2026-05-06 06:45 | 30.4 | 98.1 | 29.9 | 0.0 | 9 | 0.0 | 9 | 24.956 | 21.3 | 0.00 |
| 2026-05-06 06:40 | 30.3 | 98.1 | 29.8 | 0.0 | 9 | 0.0 | 9 | 24.955 | 19.5 | 0.00 |
| 2026-05-06 06:35 | 30.1 | 98.1 | 29.7 | 0.0 | 9 | 0.0 | 9 | 24.954 | 18.2 | 0.00 |
| 2026-05-06 06:30 | 30.1 | 98.1 | 29.6 | 0.0 | 9 | 0.0 | 9 | 24.954 | 18.0 | 0.00 |
| 2026-05-06 06:25 | 30.1 | 98.1 | 29.7 | 0.0 | 9 | 0.0 | 9 | 24.952 | 17.5 | 0.00 |
| 2026-05-06 06:20 | 30.2 | 98.2 | 29.8 | 0.0 | 9 | 0.0 | 9 | 24.950 | 15.3 | 0.00 |
| 2026-05-06 06:15 | 30.2 | 98.2 | 29.8 | 0.0 | 9 | 0.0 | 9 | 24.949 | 14.6 | 0.00 |
| 2026-05-06 06:10 | 30.1 | 98.2 | 29.7 | 0.0 | 9 | 0.0 | 9 | 24.944 | 14.4 | 0.00 |
| 2026-05-06 06:05 | 30.0 | 98.3 | 29.6 | 0.0 | 9 | 0.0 | 9 | 24.942 | 14.6 | 0.00 |
| 2026-05-06 06:00 | 29.8 | 98.3 | 29.4 | 0.0 | 9 | 0.0 | 9 | 24.939 | 12.2 | 0.00 |
| 2026-05-06 05:55 | 29.7 | 98.3 | 29.3 | 0.0 | 9 | 0.0 | 9 | 24.936 | 8.8 | 0.00 |
| 2026-05-06 05:50 | 29.7 | 98.3 | 29.3 | 0.0 | 9 | 0.0 | 9 | 24.938 | 6.5 | 0.00 |
| 2026-05-06 05:45 | 29.8 | 98.4 | 29.4 | 0.0 | 9 | 0.0 | 9 | 24.937 | 4.9 | 0.00 |
| 2026-05-06 05:40 | 29.7 | 98.4 | 29.4 | 0.0 | 9 | 0.0 | 9 | 24.935 | 3.1 | 0.00 |
| 2026-05-06 05:35 | 29.8 | 98.4 | 29.4 | 0.0 | 9 | 0.0 | 9 | 24.928 | 3.2 | 0.00 |
| 2026-05-06 05:30 | 29.8 | 98.3 | 29.4 | 0.0 | 9 | 0.0 | 9 | 24.924 | 2.8 | 0.00 |
| Date Time MST |
Temp °C |
RH % |
DewPt °C |
Wind m/s |
Dir ° |
Gust m/s |
Dir ° |
Press hPa |
Solar W/m^2 |
Prec mm |
|---|---|---|---|---|---|---|---|---|---|---|
| 2026-05-06 07:55 | 1.2 | 97.7 | 0.9 | 0.0 | 296 | 0.0 | 9 | 845.38 | 70.0 | 0.00 |
| 2026-05-06 07:50 | 0.9 | 97.9 | 0.6 | 0.0 | 9 | 0.0 | 9 | 845.37 | 66.2 | 0.00 |
| 2026-05-06 07:45 | 0.6 | 97.9 | 0.3 | 0.0 | 9 | 0.0 | 9 | 845.38 | 62.3 | 0.00 |
| 2026-05-06 07:40 | 0.3 | 98.1 | 0.1 | 0.0 | 9 | 0.0 | 9 | 845.38 | 58.8 | 0.00 |
| 2026-05-06 07:35 | 0.1 | 98.1 | -0.2 | 0.0 | 9 | 0.0 | 9 | 845.37 | 51.6 | 0.00 |
| 2026-05-06 07:30 | -0.1 | 98.2 | -0.3 | 0.0 | 9 | 0.0 | 9 | 845.37 | 45.1 | 0.00 |
| 2026-05-06 07:25 | -0.2 | 98.1 | -0.4 | 0.0 | 9 | 0.0 | 9 | 845.34 | 46.2 | 0.00 |
| 2026-05-06 07:20 | -0.3 | 98.2 | -0.6 | 0.0 | 9 | 0.0 | 9 | 845.29 | 46.1 | 0.00 |
| 2026-05-06 07:15 | -0.5 | 98.1 | -0.7 | 0.0 | 9 | 0.0 | 9 | 845.21 | 40.1 | 0.00 |
| 2026-05-06 07:10 | -0.6 | 98.1 | -0.9 | 0.0 | 9 | 0.0 | 9 | 845.22 | 36.5 | 0.00 |
| 2026-05-06 07:05 | -0.7 | 98.1 | -1.0 | 0.0 | 9 | 0.0 | 9 | 845.13 | 30.1 | 0.00 |
| 2026-05-06 07:00 | -0.8 | 98.2 | -1.0 | 0.0 | 9 | 0.0 | 9 | 845.19 | 25.1 | 0.00 |
| 2026-05-06 06:55 | -0.8 | 98.1 | -1.1 | 0.0 | 9 | 0.0 | 9 | 845.16 | 22.7 | 0.00 |
| 2026-05-06 06:50 | -0.8 | 98.1 | -1.1 | 0.0 | 9 | 0.0 | 9 | 845.17 | 23.1 | 0.00 |
| 2026-05-06 06:45 | -0.9 | 98.1 | -1.2 | 0.0 | 9 | 0.0 | 9 | 845.10 | 21.3 | 0.00 |
| 2026-05-06 06:40 | -0.9 | 98.1 | -1.2 | 0.0 | 9 | 0.0 | 9 | 845.08 | 19.5 | 0.00 |
| 2026-05-06 06:35 | -1.0 | 98.1 | -1.3 | 0.0 | 9 | 0.0 | 9 | 845.05 | 18.2 | 0.00 |
| 2026-05-06 06:30 | -1.0 | 98.1 | -1.3 | 0.0 | 9 | 0.0 | 9 | 845.04 | 18.0 | 0.00 |
| 2026-05-06 06:25 | -1.0 | 98.1 | -1.3 | 0.0 | 9 | 0.0 | 9 | 844.97 | 17.5 | 0.00 |
| 2026-05-06 06:20 | -1.0 | 98.2 | -1.2 | 0.0 | 9 | 0.0 | 9 | 844.92 | 15.3 | 0.00 |
| 2026-05-06 06:15 | -1.0 | 98.2 | -1.2 | 0.0 | 9 | 0.0 | 9 | 844.88 | 14.6 | 0.00 |
| 2026-05-06 06:10 | -1.0 | 98.2 | -1.3 | 0.0 | 9 | 0.0 | 9 | 844.72 | 14.4 | 0.00 |
| 2026-05-06 06:05 | -1.1 | 98.3 | -1.3 | 0.0 | 9 | 0.0 | 9 | 844.65 | 14.6 | 0.00 |
| 2026-05-06 06:00 | -1.2 | 98.3 | -1.4 | 0.0 | 9 | 0.0 | 9 | 844.53 | 12.2 | 0.00 |
| 2026-05-06 05:55 | -1.3 | 98.3 | -1.5 | 0.0 | 9 | 0.0 | 9 | 844.43 | 8.8 | 0.00 |
| 2026-05-06 05:50 | -1.3 | 98.3 | -1.5 | 0.0 | 9 | 0.0 | 9 | 844.50 | 6.5 | 0.00 |
| 2026-05-06 05:45 | -1.2 | 98.4 | -1.5 | 0.0 | 9 | 0.0 | 9 | 844.47 | 4.9 | 0.00 |
| 2026-05-06 05:40 | -1.3 | 98.4 | -1.5 | 0.0 | 9 | 0.0 | 9 | 844.40 | 3.1 | 0.00 |
| 2026-05-06 05:35 | -1.2 | 98.4 | -1.4 | 0.0 | 9 | 0.0 | 9 | 844.16 | 3.2 | 0.00 |
| 2026-05-06 05:30 | -1.2 | 98.3 | -1.5 | 0.0 | 9 | 0.0 | 9 | 844.02 | 2.8 | 0.00 |
Closes: 08/28/2025
Position Type: Admin Professional/Research Professional
Full/Part Time:Full Time
View job and apply on CSU Jobs website: https://jobs.colostate.edu/postings/165190